Skip to main content

NOAA/GLERL Met Station at Muskegon, MI

Previous 5 days (top of hour only)
See also Previous 3 Hours (2 minute increments)
Jump down to Data
Switch to [English][Metric]
Zoom: Click and drag, Pan: shift-click and drag, Unzoom: double-click, Unzoom All






Note: Speed = mean wind during 2-minute period at top of hour,
Gust = max wind during 2-minute period at top of hour,
Peak = max wind during entire hour.
• See also 5-day windrose plot


NOAA/GLERL Met Station at Muskegon, MI

Previous 5 days (top of hour only)
See also Previous 3 Hours (2 minute increments)
Jump up to Graphs
Switch to [English][Metric]
                  Wind  Wind  Wind   Air   Dew   Rel     Sta   PAR
                   Spd   Gst   Dir  Temp    Pt   Hum    Pres uE/m2/
YYYY-MM-DD   EDT   kts   kts   deg     F     F     %   in Hg   sec
2018-06-22 03:00  11.1  14.0    96  62.4  38.9  41.5   29.22     2
2018-06-22 02:00   8.7  14.2   100  63.7  39.5  40.6   29.23     2
2018-06-22 01:00  11.7  16.1   105  65.3  41.1  40.7   29.23     2
2018-06-22 00:00  13.8  18.1    96  66.9  47.9  50.0   29.22     2
2018-06-21 23:00  13.4  19.1   100  68.7  54.7  60.5   29.21     2
2018-06-21 22:00  12.2  19.8   104  70.5  57.6  63.2   29.20     2
2018-06-21 21:00   8.7  13.8   103  72.7  58.3  60.2   29.20    88
2018-06-21 20:00   9.3  12.8    99  73.8  58.2  57.8   29.19   324
2018-06-21 19:00  12.6  16.5   105  74.8  55.7  50.8   29.19   652
2018-06-21 18:00   5.8   9.5    93  75.6  58.3  54.5   29.20   739
2018-06-21 17:00   6.6  10.9   113  75.7  59.3  56.1   29.20   731
2018-06-21 16:00   6.6  12.1   102  74.8  57.7  54.6   29.20  1140
2018-06-21 15:00   8.9  12.1   114  74.7  56.3  52.3   29.20  1276
2018-06-21 14:00  12.6  17.5   124  74.8  53.6  47.0   29.21  1752
2018-06-21 13:00  10.5  16.9   110  73.8  55.4  52.1   29.22  1182
2018-06-21 12:00   9.9  14.6   104  73.6  55.1  51.8   29.23  1610
2018-06-21 11:00  13.2  17.5   106  71.2  55.9  57.9   29.22  1433
2018-06-21 10:00  10.9  14.2   104  70.5  58.3  64.9   29.23  1573
2018-06-21 09:00   6.0   8.7    90  66.9  60.6  79.9   29.23  1053
2018-06-21 08:00   5.4   8.2   108  65.3  61.5  87.2   29.23  1329
2018-06-21 07:00   5.8   7.2   104  63.7  60.7  90.0   29.22   325
2018-06-21 06:00   5.4   6.8   112  62.1  61.5  98.1   29.22    11
2018-06-21 05:00   5.8   6.8   107  63.7  61.6  92.7   29.21     2
2018-06-21 04:00   4.9   6.0   108  64.4  62.2  92.3   29.21     2
2018-06-21 03:00   4.7   5.4   108  65.1  63.4  94.0   29.22     2
2018-06-21 02:00   6.2   7.6    97  65.1  63.9  95.6   29.23     2
2018-06-21 01:00   3.9   5.4    84  65.5  63.3  92.7   29.24     2
2018-06-21 00:00   4.7   5.8    90  66.0  62.7  88.8   29.25     2
2018-06-20 23:00   4.7   6.0    90  66.4  62.2  86.2   29.24     2
2018-06-20 22:00   6.8   8.2    46  67.1  62.8  85.8   29.24     2
2018-06-20 21:00   8.6  10.3   356  67.5  64.7  90.7   29.24   104
2018-06-20 20:00   9.7  11.7   350  69.4  64.3  83.4   29.22  1256
2018-06-20 19:00  11.9  13.6   343  69.3  64.3  84.0   29.21  1651
2018-06-20 18:00  14.8  15.6   337  67.6  64.1  88.1   29.23   700
2018-06-20 17:00   8.4   8.7   335  70.0  63.9  80.7   29.22  1084
2018-06-20 16:00   9.5  10.3   345  68.7  63.2  82.4   29.25  1771
2018-06-20 15:00   6.0   8.0    55  73.0  60.8  65.1   29.27  1301
2018-06-20 14:00   3.7   5.6   106  71.6  60.2  66.8   29.27  2252
2018-06-20 13:00   5.1   7.2   100  69.4  61.6  75.8   29.27  1612
2018-06-20 12:00   6.2   8.7    80  65.7  61.6  86.5   29.29   984
2018-06-20 11:00   8.2   9.1    89  64.9  60.8  86.2   29.28   392
2018-06-20 10:00   8.0  10.9   103  64.0  60.3  87.5   29.27   279
2018-06-20 09:00  10.7  15.7   108  63.1  60.9  92.3   29.26   415
2018-06-20 08:00  10.3  13.8    93  62.2  61.0  95.5   29.27   119
2018-06-20 07:00  11.7  14.8    90  62.2  60.8  94.8   29.27    32
2018-06-20 06:00   8.7  12.2    90  62.4  61.8  97.7   29.27     3
2018-06-20 05:00  12.2  15.4    95  63.1  62.0  96.0   29.27     2
2018-06-20 04:00   9.9  15.9   100  64.2  61.5  90.7   29.28     2
2018-06-20 03:00  11.7  15.9   108  64.9  60.6  85.5   29.28     2
2018-06-20 02:00   9.3  14.6    98  65.3  61.4  86.9   29.29     2
2018-06-20 01:00  10.3  13.4    92  65.5  62.8  90.8   29.28     2
2018-06-20 00:00  10.9  13.6    96  64.9  62.5  91.6   29.28     2
2018-06-19 23:00  11.7  15.2    92  66.4  63.2  89.3   29.29     2
2018-06-19 22:00   8.9  12.2    75  67.6  66.7  96.9   29.29     2
2018-06-19 21:00   6.6   7.8    70  68.9  66.8  92.9   29.30    26
2018-06-19 20:00   5.6   9.1    95  70.5  66.4  86.7   29.31    80
2018-06-19 19:00   7.4  12.2    92  69.6  65.8  87.5   29.30   564
2018-06-19 18:00  11.9  17.1    86  69.1  64.3  84.5   29.32   656
2018-06-19 17:00   6.4   9.3    84  70.0  63.5  79.5   29.32   446
2018-06-19 16:00  10.1  12.2   102  69.6  64.3  82.9   29.32   492
2018-06-19 15:00  12.2  16.7   108  68.4  64.3  86.7   29.33  1286
2018-06-19 14:00  12.1  16.7   116  67.8  66.2  94.6   29.35   560
2018-06-19 13:00   4.9   8.6   112  68.9  66.4  91.7   29.39   295
2018-06-19 12:00   6.8   8.9   113  71.4  63.9  76.8   29.39   340
2018-06-19 11:00   8.9  12.8   125  71.6  65.7  81.5   29.38   993
2018-06-19 10:00   7.0  10.1    90  68.5  66.4  92.9   29.39   530
2018-06-19 09:00   8.7  11.5    87  67.3  65.6  94.4   29.38   288
2018-06-19 08:00   6.4   9.9    97  67.5  65.7  93.9   29.37   143
2018-06-19 07:00   8.0  10.1   103  66.9  65.3  94.4   29.37    97
2018-06-19 06:00   8.4  11.7    88  66.2  64.7  94.7   29.37     4
2018-06-19 05:00   6.6   9.5    76  66.4  65.0  95.2   29.36     2
2018-06-19 04:00   7.2  10.9    79  66.4  64.9  95.0   29.36     2
2018-06-19 03:00   7.4   8.9    66  66.6  65.4  96.1   29.36     2
2018-06-19 02:00   7.8   9.7    64  66.9  66.3  98.0   29.37     2
2018-06-19 01:00   8.2  10.5    58  67.6  66.2  95.1   29.36     2
2018-06-19 00:00   7.0   8.7    52  68.7  68.7  99.9   29.36     2
2018-06-18 23:00   8.9   9.5   354  67.8  67.8  99.9   29.35     2
2018-06-18 22:00  10.7  11.5   355  66.9  66.9  99.9   29.32     2
2018-06-18 21:00   7.8   9.5   349  68.7  68.7  99.9   29.31    18
2018-06-18 20:00   7.8   9.5    30  70.9  70.9  99.9   29.29    21
2018-06-18 19:00   8.6   9.9   350  67.3  67.3  99.9   29.30    23
2018-06-18 18:00   8.0   9.1   347  68.7  68.7  99.9   29.29    22
2018-06-18 17:00   4.9   6.2   266  70.3  69.9  98.4   29.28   108
2018-06-18 16:00   2.5   2.9   220  71.4  68.5  90.3   29.29   396
2018-06-18 15:00   7.6   8.4   201  71.4  67.1  86.0   29.30  1513
2018-06-18 14:00   6.4   7.0   200  70.9  67.0  87.2   29.31  2031
2018-06-18 13:00   8.6   8.9   198  69.8  66.5  89.2   29.31  2436
2018-06-18 12:00  11.5  12.4   198  70.9  67.7  89.6   29.29  2198
2018-06-18 11:00   1.7   2.1   237  70.0  67.2  90.6   29.32  1693
2018-06-18 10:00   8.2   9.7   200  70.3  68.6  94.2   29.31  1040
2018-06-18 09:00  10.7  12.2   201  69.1  67.3  94.0   29.30  1041
2018-06-18 08:00  12.1  13.4   191  68.9  67.6  95.7   29.30   450
2018-06-18 07:00   8.7  10.1   185  68.0  67.5  98.4   29.29   153
2018-06-18 06:00   3.1   4.5   246  67.8  66.2  94.5   29.30     4
2018-06-18 05:00  16.1  17.3   236  68.7  67.0  94.2   29.27     2
2018-06-18 04:00  15.2  15.7   218  69.3  67.2  93.0   29.28     2
2018-06-18 03:00  13.6  14.8   214  69.3  67.7  94.7   29.29     2
2018-06-18 02:00  12.1  13.0   216  69.1  67.7  95.3   29.29     2
2018-06-18 01:00  13.4  14.4   233  68.9  67.0  93.5   29.31     2
2018-06-18 00:00  16.5  17.3   246  69.6  66.8  90.7   29.31     2
2018-06-17 23:00  15.7  17.3   251  70.2  67.1  89.9   29.32     2
2018-06-17 22:00   9.5  10.5   224  70.3  67.5  90.7   29.30     2
2018-06-17 21:00  13.6  14.6   206  72.0  68.8  89.5   29.29    83
2018-06-17 20:00  15.9  16.9   198  75.6  69.5  81.1   29.28  1094